sensor_id;sensor_type;location;lat;lon;timestamp;pressure;altitude;pressure_sealevel;temperature;humidity
51439;BME280;38816;51.142;-0.974;2023-07-29T00:00:49;99168.03;;;15.61;100.00
51439;BME280;38816;51.142;-0.974;2023-07-29T00:03:15;99167.38;;;15.52;100.00
51439;BME280;38816;51.142;-0.974;2023-07-29T00:05:40;99176.00;;;15.52;100.00
51439;BME280;38816;51.142;-0.974;2023-07-29T00:08:06;99173.41;;;15.54;100.00
51439;BME280;38816;51.142;-0.974;2023-07-29T00:10:35;99170.88;;;15.51;100.00
51439;BME280;38816;51.142;-0.974;2023-07-29T00:13:00;99172.56;;;15.52;100.00
51439;BME280;38816;51.142;-0.974;2023-07-29T00:15:26;99174.41;;;15.47;100.00
51439;BME280;38816;51.142;-0.974;2023-07-29T00:17:51;99162.41;;;15.42;100.00
51439;BME280;38816;51.142;-0.974;2023-07-29T00:20:17;99166.81;;;15.37;100.00
51439;BME280;38816;51.142;-0.974;2023-07-29T00:22:42;99160.75;;;15.38;100.00
51439;BME280;38816;51.142;-0.974;2023-07-29T00:25:08;99164.22;;;15.37;100.00
51439;BME280;38816;51.142;-0.974;2023-07-29T00:27:34;99173.84;;;15.32;100.00
51439;BME280;38816;51.142;-0.974;2023-07-29T00:29:59;99165.31;;;15.26;100.00
51439;BME280;38816;51.142;-0.974;2023-07-29T00:32:26;99161.06;;;15.23;100.00
51439;BME280;38816;51.142;-0.974;2023-07-29T00:34:52;99157.63;;;15.23;100.00
51439;BME280;38816;51.142;-0.974;2023-07-29T00:37:17;99160.22;;;15.23;100.00
51439;BME280;38816;51.142;-0.974;2023-07-29T00:39:43;99154.19;;;15.20;100.00
51439;BME280;38816;51.142;-0.974;2023-07-29T00:42:08;99155.09;;;15.19;100.00
51439;BME280;38816;51.142;-0.974;2023-07-29T00:44:34;99149.13;;;15.16;100.00
51439;BME280;38816;51.142;-0.974;2023-07-29T00:47:00;99147.41;;;15.15;100.00
51439;BME280;38816;51.142;-0.974;2023-07-29T00:49:27;99144.00;;;15.13;100.00
51439;BME280;38816;51.142;-0.974;2023-07-29T00:51:53;99145.78;;;15.11;100.00
51439;BME280;38816;51.142;-0.974;2023-07-29T00:54:19;99151.75;;;15.13;100.00
51439;BME280;38816;51.142;-0.974;2023-07-29T00:56:44;99144.00;;;15.13;100.00
51439;BME280;38816;51.142;-0.974;2023-07-29T00:59:10;99134.44;;;15.16;100.00
51439;BME280;38816;51.142;-0.974;2023-07-29T01:01:35;99137.00;;;15.18;100.00
51439;BME280;38816;51.142;-0.974;2023-07-29T01:04:01;99136.16;;;15.17;100.00
51439;BME280;38816;51.142;-0.974;2023-07-29T01:09:43;99136.97;;;15.19;100.00
51439;BME280;38816;51.142;-0.974;2023-07-29T01:15:24;99129.16;;;15.21;100.00
51439;BME280;38816;51.142;-0.974;2023-07-29T01:17:54;99123.97;;;15.21;100.00
51439;BME280;38816;51.142;-0.974;2023-07-29T01:20:21;99121.44;;;15.19;100.00
51439;BME280;38816;51.142;-0.974;2023-07-29T01:22:49;99129.06;;;15.27;100.00
51439;BME280;38816;51.142;-0.974;2023-07-29T01:25:14;99125.63;;;15.27;100.00
51439;BME280;38816;51.142;-0.974;2023-07-29T01:27:43;99129.00;;;15.29;100.00
51439;BME280;38816;51.142;-0.974;2023-07-29T01:30:08;99119.47;;;15.31;100.00
51439;BME280;38816;51.142;-0.974;2023-07-29T01:35:24;99119.47;;;15.32;100.00
51439;BME280;38816;51.142;-0.974;2023-07-29T01:37:55;99122.03;;;15.32;100.00
51439;BME280;38816;51.142;-0.974;2023-07-29T01:40:24;99119.47;;;15.31;100.00
51439;BME280;38816;51.142;-0.974;2023-07-29T01:42:51;99115.94;;;15.35;100.00
51439;BME280;38816;51.142;-0.974;2023-07-29T01:45:17;99112.50;;;15.34;100.00
51439;BME280;38816;51.142;-0.974;2023-07-29T01:47:43;99110.00;;;15.31;100.00
51439;BME280;38816;51.142;-0.974;2023-07-29T01:50:09;99107.31;;;15.34;100.00
51439;BME280;38816;51.142;-0.974;2023-07-29T01:52:34;99113.34;;;15.35;100.00
51439;BME280;38816;51.142;-0.974;2023-07-29T01:55:01;99122.84;;;15.34;100.00
51439;BME280;38816;51.142;-0.974;2023-07-29T01:57:26;99115.91;;;15.36;100.00
51439;BME280;38816;51.142;-0.974;2023-07-29T01:59:52;99119.38;;;15.35;100.00
51439;BME280;38816;51.142;-0.974;2023-07-29T02:02:17;99109.94;;;15.33;100.00
51439;BME280;38816;51.142;-0.974;2023-07-29T02:04:42;99102.13;;;15.34;100.00
51439;BME280;38816;51.142;-0.974;2023-07-29T02:07:08;99115.03;;;15.37;100.00
51439;BME280;38816;51.142;-0.974;2023-07-29T02:09:33;99108.97;;;15.38;100.00
51439;BME280;38816;51.142;-0.974;2023-07-29T02:11:59;99098.59;;;15.38;100.00
51439;BME280;38816;51.142;-0.974;2023-07-29T02:14:24;99100.34;;;15.38;100.00
51439;BME280;38816;51.142;-0.974;2023-07-29T02:16:50;99098.56;;;15.40;100.00
51439;BME280;38816;51.142;-0.974;2023-07-29T02:19:15;99097.72;;;15.39;100.00
51439;BME280;38816;51.142;-0.974;2023-07-29T02:21:41;99095.97;;;15.40;100.00
51439;BME280;38816;51.142;-0.974;2023-07-29T02:24:06;99088.28;;;15.35;100.00
51439;BME280;38816;51.142;-0.974;2023-07-29T02:26:32;99098.59;;;15.38;100.00
51439;BME280;38816;51.142;-0.974;2023-07-29T02:28:57;99099.53;;;15.36;100.00
51439;BME280;38816;51.142;-0.974;2023-07-29T02:31:24;99088.28;;;15.35;100.00
51439;BME280;38816;51.142;-0.974;2023-07-29T02:33:51;99094.38;;;15.34;100.00
51439;BME280;38816;51.142;-0.974;2023-07-29T02:36:17;99093.47;;;15.35;100.00
51439;BME280;38816;51.142;-0.974;2023-07-29T02:38:42;99087.50;;;15.33;100.00
51439;BME280;38816;51.142;-0.974;2023-07-29T02:41:09;99086.69;;;15.31;100.00
51439;BME280;38816;51.142;-0.974;2023-07-29T02:43:35;99087.63;;;15.27;100.00
51439;BME280;38816;51.142;-0.974;2023-07-29T02:46:02;99093.75;;;15.23;100.00
51439;BME280;38816;51.142;-0.974;2023-07-29T02:48:28;99100.78;;;15.18;100.00
51439;BME280;38816;51.142;-0.974;2023-07-29T02:50:54;99091.38;;;15.12;100.00
51439;BME280;38816;51.142;-0.974;2023-07-29T02:53:21;99101.72;;;15.12;100.00
51439;BME280;38816;51.142;-0.974;2023-07-29T02:55:47;99108.63;;;15.12;100.00
51439;BME280;38816;51.142;-0.974;2023-07-29T02:58:12;99112.97;;;15.11;100.00
51439;BME280;38816;51.142;-0.974;2023-07-29T03:00:37;99107.75;;;15.13;100.00
51439;BME280;38816;51.142;-0.974;2023-07-29T03:03:04;99099.22;;;15.08;100.00
51439;BME280;38816;51.142;-0.974;2023-07-29T03:05:29;99100.88;;;15.12;100.00
51439;BME280;38816;51.142;-0.974;2023-07-29T03:07:55;99087.03;;;15.13;100.00
51439;BME280;38816;51.142;-0.974;2023-07-29T03:10:20;99077.59;;;15.12;100.00
51439;BME280;38816;51.142;-0.974;2023-07-29T03:12:46;99080.16;;;15.12;100.00
51439;BME280;38816;51.142;-0.974;2023-07-29T03:15:12;99083.59;;;15.14;100.00
51439;BME280;38816;51.142;-0.974;2023-07-29T03:17:37;99081.88;;;15.13;100.00
51439;BME280;38816;51.142;-0.974;2023-07-29T03:20:03;99092.22;;;15.13;100.00
51439;BME280;38816;51.142;-0.974;2023-07-29T03:22:28;99091.38;;;15.12;100.00
51439;BME280;38816;51.142;-0.974;2023-07-29T03:24:54;99088.88;;;15.09;100.00
51439;BME280;38816;51.142;-0.974;2023-07-29T03:27:19;99094.94;;;15.07;100.00
51439;BME280;38816;51.142;-0.974;2023-07-29T03:29:45;99094.06;;;15.08;100.00
51439;BME280;38816;51.142;-0.974;2023-07-29T03:32:11;99101.00;;;15.06;100.00
51439;BME280;38816;51.142;-0.974;2023-07-29T03:34:36;99097.59;;;15.04;100.00
51439;BME280;38816;51.142;-0.974;2023-07-29T03:37:02;99099.38;;;15.02;100.00
51439;BME280;38816;51.142;-0.974;2023-07-29T03:39:28;99096.03;;;14.97;100.00
51439;BME280;38816;51.142;-0.974;2023-07-29T03:41:53;99097.66;;;15.01;100.00
51439;BME280;38816;51.142;-0.974;2023-07-29T03:44:18;99097.69;;;14.99;100.00
51439;BME280;38816;51.142;-0.974;2023-07-29T03:46:44;99100.31;;;14.98;100.00
51439;BME280;38816;51.142;-0.974;2023-07-29T03:49:10;99093.44;;;14.97;100.00
51439;BME280;38816;51.142;-0.974;2023-07-29T03:51:36;99097.75;;;14.96;100.00
51439;BME280;38816;51.142;-0.974;2023-07-29T03:54:01;99087.41;;;14.94;100.00
51439;BME280;38816;51.142;-0.974;2023-07-29T03:56:27;99083.25;;;14.87;100.00
51439;BME280;38816;51.142;-0.974;2023-07-29T03:58:52;99092.69;;;14.91;100.00
51439;BME280;38816;51.142;-0.974;2023-07-29T04:01:18;99086.66;;;14.91;100.00
51439;BME280;38816;51.142;-0.974;2023-07-29T04:03:45;99090.97;;;14.90;100.00
51439;BME280;38816;51.142;-0.974;2023-07-29T04:06:11;99093.63;;;14.87;100.00
51439;BME280;38816;51.142;-0.974;2023-07-29T04:08:36;99100.53;;;14.87;100.00
51439;BME280;38816;51.142;-0.974;2023-07-29T04:11:02;99100.53;;;14.87;100.00
51439;BME280;38816;51.142;-0.974;2023-07-29T04:13:27;99100.50;;;14.88;100.00
51439;BME280;38816;51.142;-0.974;2023-07-29T04:15:53;99093.56;;;14.89;100.00
51439;BME280;38816;51.142;-0.974;2023-07-29T04:18:18;99104.78;;;14.89;100.00
51439;BME280;38816;51.142;-0.974;2023-07-29T04:20:44;99103.91;;;14.89;100.00
51439;BME280;38816;51.142;-0.974;2023-07-29T04:23:10;99107.34;;;14.89;100.00
51439;BME280;38816;51.142;-0.974;2023-07-29T04:25:35;99106.56;;;14.87;100.00
51439;BME280;38816;51.142;-0.974;2023-07-29T04:28:01;99096.22;;;14.86;100.00
51439;BME280;38816;51.142;-0.974;2023-07-29T04:30:28;99109.16;;;14.86;100.00
51439;BME280;38816;51.142;-0.974;2023-07-29T04:32:54;99095.44;;;14.82;100.00
51439;BME280;38816;51.142;-0.974;2023-07-29T04:35:19;99103.19;;;14.82;100.00
51439;BME280;38816;51.142;-0.974;2023-07-29T04:37:45;99090.28;;;14.81;100.00
51439;BME280;38816;51.142;-0.974;2023-07-29T04:40:13;99096.28;;;14.83;100.00
51439;BME280;38816;51.142;-0.974;2023-07-29T04:42:38;99092.84;;;14.81;100.00
51439;BME280;38816;51.142;-0.974;2023-07-29T04:45:04;99086.91;;;14.77;100.00
51439;BME280;38816;51.142;-0.974;2023-07-29T04:47:30;99093.81;;;14.77;100.00
51439;BME280;38816;51.142;-0.974;2023-07-29T04:49:55;99097.31;;;14.74;100.00
51439;BME280;38816;51.142;-0.974;2023-07-29T04:52:21;99104.09;;;14.80;100.00
51439;BME280;38816;51.142;-0.974;2023-07-29T04:54:47;99101.47;;;14.81;100.00
51439;BME280;38816;51.142;-0.974;2023-07-29T04:57:12;99110.88;;;14.85;100.00
51439;BME280;38816;51.142;-0.974;2023-07-29T04:59:37;99110.03;;;14.86;100.00
51439;BME280;38816;51.142;-0.974;2023-07-29T05:02:03;99115.13;;;14.89;100.00
51439;BME280;38816;51.142;-0.974;2023-07-29T05:04:29;99109.94;;;14.89;100.00
51439;BME280;38816;51.142;-0.974;2023-07-29T05:06:54;99109.00;;;14.95;100.00
51439;BME280;38816;51.142;-0.974;2023-07-29T05:09:19;99113.25;;;14.98;100.00
51439;BME280;38816;51.142;-0.974;2023-07-29T05:11:45;99112.41;;;14.97;100.00
51439;BME280;38816;51.142;-0.974;2023-07-29T05:14:16;99111.50;;;15.00;100.00
51439;BME280;38816;51.142;-0.974;2023-07-29T05:16:42;99110.50;;;15.05;100.00
51439;BME280;38816;51.142;-0.974;2023-07-29T05:19:07;99112.16;;;15.08;100.00
51439;BME280;38816;51.142;-0.974;2023-07-29T05:21:33;99106.91;;;15.12;100.00
51439;BME280;38816;51.142;-0.974;2023-07-29T05:23:59;99115.50;;;15.14;100.00
51439;BME280;38816;51.142;-0.974;2023-07-29T05:26:24;99109.34;;;15.20;100.00
51439;BME280;38816;51.142;-0.974;2023-07-29T05:28:49;99105.81;;;15.24;100.00
51439;BME280;38816;51.142;-0.974;2023-07-29T05:31:15;99103.09;;;15.30;100.00
51439;BME280;38816;51.142;-0.974;2023-07-29T05:33:40;99112.44;;;15.37;100.00
51439;BME280;38816;51.142;-0.974;2023-07-29T05:36:06;99111.41;;;15.46;100.00
51439;BME280;38816;51.142;-0.974;2023-07-29T05:38:31;99105.22;;;15.52;100.00
51439;BME280;38816;51.142;-0.974;2023-07-29T05:40:57;99108.50;;;15.60;100.00
51439;BME280;38816;51.142;-0.974;2023-07-29T05:43:24;99110.97;;;15.66;100.00
51439;BME280;38816;51.142;-0.974;2023-07-29T05:45:49;99113.44;;;15.72;100.00
51439;BME280;38816;51.142;-0.974;2023-07-29T05:48:16;99108.13;;;15.78;100.00
51439;BME280;38816;51.142;-0.974;2023-07-29T05:50:42;99104.78;;;15.73;100.00
51439;BME280;38816;51.142;-0.974;2023-07-29T05:53:07;99103.84;;;15.76;100.00
51439;BME280;38816;51.142;-0.974;2023-07-29T05:55:33;99104.78;;;15.73;100.00
51439;BME280;38816;51.142;-0.974;2023-07-29T05:57:58;99106.59;;;15.69;100.00
51439;BME280;38816;51.142;-0.974;2023-07-29T06:00:24;99106.63;;;15.68;100.00
51439;BME280;38816;51.142;-0.974;2023-07-29T06:02:49;99117.78;;;15.72;100.00
51439;BME280;38816;51.142;-0.974;2023-07-29T06:05:14;99109.06;;;15.74;100.00
51439;BME280;38816;51.142;-0.974;2023-07-29T06:07:40;99103.81;;;15.77;100.00
51439;BME280;38816;51.142;-0.974;2023-07-29T06:10:09;99106.31;;;15.80;100.00
51439;BME280;38816;51.142;-0.974;2023-07-29T06:12:37;99094.16;;;15.84;100.00
51439;BME280;38816;51.142;-0.974;2023-07-29T06:15:04;99100.84;;;15.94;100.00
51439;BME280;38816;51.142;-0.974;2023-07-29T06:17:30;99100.53;;;16.08;100.00
51439;BME280;38816;51.142;-0.974;2023-07-29T06:19:55;99097.75;;;16.14;100.00
51439;BME280;38816;51.142;-0.974;2023-07-29T06:22:21;99088.28;;;16.13;100.00
51439;BME280;38816;51.142;-0.974;2023-07-29T06:24:46;99091.69;;;16.15;100.00
51439;BME280;38816;51.142;-0.974;2023-07-29T06:27:12;99096.50;;;16.30;100.00
51439;BME280;38816;51.142;-0.974;2023-07-29T06:29:38;99098.38;;;16.58;100.00
51439;BME280;38816;51.142;-0.974;2023-07-29T06:32:03;99098.03;;;16.70;100.00
51439;BME280;38816;51.142;-0.974;2023-07-29T06:34:29;99097.41;;;16.62;100.00
51439;BME280;38816;51.142;-0.974;2023-07-29T06:36:54;99103.09;;;16.42;100.00
51439;BME280;38816;51.142;-0.974;2023-07-29T06:39:20;99091.69;;;16.15;100.00
51439;BME280;38816;51.142;-0.974;2023-07-29T06:41:45;99106.72;;;16.01;100.00
51439;BME280;38816;51.142;-0.974;2023-07-29T06:44:11;99112.88;;;15.97;100.00
51439;BME280;38816;51.142;-0.974;2023-07-29T06:46:36;99105.94;;;15.99;100.00
51439;BME280;38816;51.142;-0.974;2023-07-29T06:49:01;99105.94;;;15.99;100.00
51439;BME280;38816;51.142;-0.974;2023-07-29T06:51:27;99105.25;;;15.90;100.00
51439;BME280;38816;51.142;-0.974;2023-07-29T06:53:57;99104.53;;;15.84;100.00
51439;BME280;38816;51.142;-0.974;2023-07-29T06:56:23;99106.25;;;15.83;100.00
51439;BME280;38816;51.142;-0.974;2023-07-29T06:58:48;99111.41;;;15.85;100.00
51439;BME280;38816;51.142;-0.974;2023-07-29T07:01:14;99111.28;;;15.91;100.00
51439;BME280;38816;51.142;-0.974;2023-07-29T07:03:39;99117.38;;;15.88;100.00
51439;BME280;38816;51.142;-0.974;2023-07-29T07:06:04;99116.63;;;15.83;100.00
51439;BME280;38816;51.142;-0.974;2023-07-29T07:08:30;99119.97;;;15.88;100.00
51439;BME280;38816;51.142;-0.974;2023-07-29T07:10:56;99126.94;;;15.86;100.00
51439;BME280;38816;51.142;-0.974;2023-07-29T07:13:22;99124.28;;;15.88;100.00
51439;BME280;38816;51.142;-0.974;2023-07-29T07:15:47;99118.00;;;16.00;100.00
51439;BME280;38816;51.142;-0.974;2023-07-29T07:18:13;99125.53;;;16.09;100.00
51439;BME280;38816;51.142;-0.974;2023-07-29T07:20:38;99119.19;;;16.22;100.00
51439;BME280;38816;51.142;-0.974;2023-07-29T07:23:04;99117.94;;;16.37;100.00
51439;BME280;38816;51.142;-0.974;2023-07-29T07:25:31;99116.38;;;16.64;100.00
51439;BME280;38816;51.142;-0.974;2023-07-29T07:27:56;99125.44;;;16.82;100.00
51439;BME280;38816;51.142;-0.974;2023-07-29T07:30:22;99131.50;;;16.82;100.00
51439;BME280;38816;51.142;-0.974;2023-07-29T07:32:47;99121.34;;;16.73;100.00
51439;BME280;38816;51.142;-0.974;2023-07-29T07:35:13;99121.28;;;16.76;100.00
51439;BME280;38816;51.142;-0.974;2023-07-29T07:37:38;99116.56;;;16.56;100.00
51439;BME280;38816;51.142;-0.974;2023-07-29T07:40:04;99123.19;;;16.35;100.00
51439;BME280;38816;51.142;-0.974;2023-07-29T07:42:30;99119.00;;;16.28;100.00
51439;BME280;38816;51.142;-0.974;2023-07-29T07:44:55;99113.66;;;16.34;100.00
51439;BME280;38816;51.142;-0.974;2023-07-29T07:47:20;99120.41;;;16.41;100.00
51439;BME280;38816;51.142;-0.974;2023-07-29T07:49:46;99119.50;;;16.42;100.00
51439;BME280;38816;51.142;-0.974;2023-07-29T07:52:11;99129.63;;;16.53;100.00
51439;BME280;38816;51.142;-0.974;2023-07-29T07:54:37;99126.75;;;16.64;100.00
51439;BME280;38816;51.142;-0.974;2023-07-29T07:57:02;99133.16;;;16.85;100.00
51439;BME280;38816;51.142;-0.974;2023-07-29T07:59:28;99125.84;;;16.99;100.00
51439;BME280;38816;51.142;-0.974;2023-07-29T08:01:53;99132.34;;;17.14;100.00
51439;BME280;38816;51.142;-0.974;2023-07-29T08:04:19;99128.16;;;17.39;100.00
51439;BME280;38816;51.142;-0.974;2023-07-29T08:06:44;99138.22;;;17.52;100.00
51439;BME280;38816;51.142;-0.974;2023-07-29T08:09:09;99141.75;;;17.79;100.00
51439;BME280;38816;51.142;-0.974;2023-07-29T08:11:35;99156.16;;;17.89;100.00
51439;BME280;38816;51.142;-0.974;2023-07-29T08:14:00;99157.44;;;18.04;100.00
51439;BME280;38816;51.142;-0.974;2023-07-29T08:16:26;99155.88;;;17.98;100.00
51439;BME280;38816;51.142;-0.974;2023-07-29T08:18:51;99155.19;;;17.91;100.00
51439;BME280;38816;51.142;-0.974;2023-07-29T08:21:17;99156.63;;;17.72;100.00
51439;BME280;38816;51.142;-0.974;2023-07-29T08:23:42;99146.53;;;17.63;100.00
51439;BME280;38816;51.142;-0.974;2023-07-29T08:26:08;99144.22;;;17.83;100.00
51439;BME280;38816;51.142;-0.974;2023-07-29T08:28:35;99157.16;;;17.85;100.00
51439;BME280;38816;51.142;-0.974;2023-07-29T08:31:01;99158.09;;;17.82;100.00
51439;BME280;38816;51.142;-0.974;2023-07-29T08:33:27;99148.91;;;17.70;100.00
51439;BME280;38816;51.142;-0.974;2023-07-29T08:35:53;99153.09;;;17.76;100.00
51439;BME280;38816;51.142;-0.974;2023-07-29T08:38:19;99146.75;;;17.85;100.00
51439;BME280;38816;51.142;-0.974;2023-07-29T08:40:53;99149.63;;;18.04;100.00
51439;BME280;38816;51.142;-0.974;2023-07-29T08:43:21;99149.56;;;18.33;100.00
51439;BME280;38816;51.142;-0.974;2023-07-29T08:45:49;99148.97;;;18.50;100.00
51439;BME280;38816;51.142;-0.974;2023-07-29T08:48:19;99146.81;;;18.63;100.00
51439;BME280;38816;51.142;-0.974;2023-07-29T08:50:45;99145.38;;;18.81;100.00
51439;BME280;38816;51.142;-0.974;2023-07-29T08:53:11;99153.84;;;18.61;100.00
51439;BME280;38816;51.142;-0.974;2023-07-29T08:55:36;99154.56;;;18.39;100.00
51439;BME280;38816;51.142;-0.974;2023-07-29T08:58:02;99157.28;;;18.61;100.00
51439;BME280;38816;51.142;-0.974;2023-07-29T09:00:28;99156.94;;;18.72;100.00
51439;BME280;38816;51.142;-0.974;2023-07-29T09:02:54;99155.75;;;18.82;100.00
51439;BME280;38816;51.142;-0.974;2023-07-29T09:05:21;99159.31;;;18.80;100.00
51439;BME280;38816;51.142;-0.974;2023-07-29T09:07:47;99156.16;;;18.68;100.00
51439;BME280;38816;51.142;-0.974;2023-07-29T09:10:13;99154.09;;;18.53;100.00
51439;BME280;38816;51.142;-0.974;2023-07-29T09:12:40;99147.66;;;18.38;100.00
51439;BME280;38816;51.142;-0.974;2023-07-29T09:15:05;99152.84;;;18.38;100.00
51439;BME280;38816;51.142;-0.974;2023-07-29T09:17:33;99154.56;;;18.39;100.00
51439;BME280;38816;51.142;-0.974;2023-07-29T09:19:58;99157.91;;;18.43;100.00
51439;BME280;38816;51.142;-0.974;2023-07-29T09:22:27;99160.16;;;18.27;100.00
51439;BME280;38816;51.142;-0.974;2023-07-29T09:24:52;99160.66;;;18.12;100.00
51439;BME280;38816;51.142;-0.974;2023-07-29T09:27:28;99163.47;;;18.06;100.00
51439;BME280;38816;51.142;-0.974;2023-07-29T09:29:57;99168.31;;;17.88;100.00
51439;BME280;38816;51.142;-0.974;2023-07-29T09:32:24;99167.69;;;17.80;100.00
51439;BME280;38816;51.142;-0.974;2023-07-29T09:34:50;99167.03;;;17.72;100.00
51439;BME280;38816;51.142;-0.974;2023-07-29T09:37:23;99166.38;;;17.65;100.00
51439;BME280;38816;51.142;-0.974;2023-07-29T09:39:49;99175.44;;;17.82;100.00
51439;BME280;38816;51.142;-0.974;2023-07-29T09:42:22;99171.19;;;17.79;100.00
51439;BME280;38816;51.142;-0.974;2023-07-29T09:44:50;99165.59;;;17.91;100.00
51439;BME280;38816;51.142;-0.974;2023-07-29T09:47:23;99174.44;;;18.14;100.00
51439;BME280;38816;51.142;-0.974;2023-07-29T09:49:52;99172.38;;;18.25;100.00
51439;BME280;38816;51.142;-0.974;2023-07-29T09:52:20;99168.34;;;18.41;100.00
51439;BME280;38816;51.142;-0.974;2023-07-29T09:54:47;99159.47;;;18.75;100.00
51439;BME280;38816;51.142;-0.974;2023-07-29T09:57:18;99165.72;;;19.19;100.00
51439;BME280;38816;51.142;-0.974;2023-07-29T09:59:54;99159.69;;;19.66;100.00
51439;BME280;38816;51.142;-0.974;2023-07-29T10:02:20;99164.13;;;20.08;100.00
51439;BME280;38816;51.142;-0.974;2023-07-29T10:04:46;99163.63;;;20.42;96.12
51439;BME280;38816;51.142;-0.974;2023-07-29T10:07:12;99154.53;;;20.52;91.91
51439;BME280;38816;51.142;-0.974;2023-07-29T10:09:39;99162.78;;;20.84;91.06
51439;BME280;38816;51.142;-0.974;2023-07-29T10:12:06;99163.09;;;21.17;92.42
51439;BME280;38816;51.142;-0.974;2023-07-29T10:14:32;99160.59;;;20.93;91.52
51439;BME280;38816;51.142;-0.974;2023-07-29T10:16:58;99172.03;;;20.50;89.89
51439;BME280;38816;51.142;-0.974;2023-07-29T10:19:25;99169.47;;;20.48;92.24
51439;BME280;38816;51.142;-0.974;2023-07-29T10:21:51;99166.69;;;20.94;93.97
51439;BME280;38816;51.142;-0.974;2023-07-29T10:24:24;99177.78;;;21.59;95.09
51439;BME280;38816;51.142;-0.974;2023-07-29T10:26:57;99178.00;;;21.73;79.03
51439;BME280;38816;51.142;-0.974;2023-07-29T10:29:23;99174.13;;;21.63;84.30
51439;BME280;38816;51.142;-0.974;2023-07-29T10:31:54;99177.91;;;21.56;85.88
51439;BME280;38816;51.142;-0.974;2023-07-29T10:34:21;99182.72;;;21.46;86.99
51439;BME280;38816;51.142;-0.974;2023-07-29T10:36:48;99179.53;;;21.39;91.03
51439;BME280;38816;51.142;-0.974;2023-07-29T10:39:14;99188.16;;;21.21;89.55
51439;BME280;38816;51.142;-0.974;2023-07-29T10:41:55;99189.88;;;21.02;81.73
51439;BME280;38816;51.142;-0.974;2023-07-29T10:44:46;99191.19;;;20.91;79.62
51439;BME280;38816;51.142;-0.974;2023-07-29T10:47:15;99189.69;;;20.86;85.10
51439;BME280;38816;51.142;-0.974;2023-07-29T10:49:41;99187.00;;;20.67;84.53
51439;BME280;38816;51.142;-0.974;2023-07-29T10:52:07;99196.84;;;20.60;88.07
51439;BME280;38816;51.142;-0.974;2023-07-29T10:54:46;99191.88;;;20.54;89.55
51439;BME280;38816;51.142;-0.974;2023-07-29T10:57:16;99197.63;;;20.40;88.33
51439;BME280;38816;51.142;-0.974;2023-07-29T10:59:55;99200.50;;;20.56;89.05
51439;BME280;38816;51.142;-0.974;2023-07-29T11:02:28;99191.31;;;20.88;81.91
51439;BME280;38816;51.142;-0.974;2023-07-29T11:04:54;99195.53;;;21.11;83.60
51439;BME280;38816;51.142;-0.974;2023-07-29T11:07:21;99186.97;;;21.28;89.60
51439;BME280;38816;51.142;-0.974;2023-07-29T11:09:55;99188.56;;;21.32;83.31
51439;BME280;38816;51.142;-0.974;2023-07-29T11:12:44;99190.97;;;21.37;80.20
51439;BME280;38816;51.142;-0.974;2023-07-29T11:15:26;99181.81;;;21.27;74.65
51439;BME280;38816;51.142;-0.974;2023-07-29T11:17:58;99191.88;;;21.15;81.55
51439;BME280;38816;51.142;-0.974;2023-07-29T11:20:25;99177.31;;;21.10;79.74
51439;BME280;38816;51.142;-0.974;2023-07-29T11:22:52;99176.78;;;21.22;75.85
51439;BME280;38816;51.142;-0.974;2023-07-29T11:25:18;99183.34;;;21.51;77.37
51439;BME280;38816;51.142;-0.974;2023-07-29T11:27:44;99185.19;;;21.49;79.13
51439;BME280;38816;51.142;-0.974;2023-07-29T11:30:11;99183.44;;;21.29;74.99
51439;BME280;38816;51.142;-0.974;2023-07-29T11:32:39;99192.34;;;21.05;74.92
51439;BME280;38816;51.142;-0.974;2023-07-29T11:35:12;99205.28;;;20.67;76.24
51439;BME280;38816;51.142;-0.974;2023-07-29T11:37:40;99202.13;;;20.37;79.54
51439;BME280;38816;51.142;-0.974;2023-07-29T11:40:06;99216.50;;;20.25;77.95
51439;BME280;38816;51.142;-0.974;2023-07-29T11:42:33;99223.59;;;20.00;80.61
51439;BME280;38816;51.142;-0.974;2023-07-29T11:45:00;99229.38;;;19.84;80.26
51439;BME280;38816;51.142;-0.974;2023-07-29T11:47:26;99222.94;;;19.71;80.51
51439;BME280;38816;51.142;-0.974;2023-07-29T11:49:52;99223.94;;;19.67;82.28
51439;BME280;38816;51.142;-0.974;2023-07-29T11:52:18;99218.34;;;20.23;77.23
51439;BME280;38816;51.142;-0.974;2023-07-29T11:54:47;99214.72;;;20.49;76.00
51439;BME280;38816;51.142;-0.974;2023-07-29T11:57:13;99228.00;;;20.65;73.36
51439;BME280;38816;51.142;-0.974;2023-07-29T11:59:41;99219.78;;;20.74;72.41
51439;BME280;38816;51.142;-0.974;2023-07-29T12:02:12;99210.50;;;20.67;71.80
51439;BME280;38816;51.142;-0.974;2023-07-29T12:04:39;99219.78;;;20.74;75.43
51439;BME280;38816;51.142;-0.974;2023-07-29T12:07:06;99214.34;;;21.19;74.99
51439;BME280;38816;51.142;-0.974;2023-07-29T12:09:33;99214.19;;;21.63;69.33
51439;BME280;38816;51.142;-0.974;2023-07-29T12:11:59;99218.72;;;21.79;71.07
51439;BME280;38816;51.142;-0.974;2023-07-29T12:14:26;99220.84;;;21.70;70.65
51439;BME280;38816;51.142;-0.974;2023-07-29T12:16:52;99227.75;;;21.53;74.55
51439;BME280;38816;51.142;-0.974;2023-07-29T12:19:19;99234.69;;;21.91;68.88
51439;BME280;38816;51.142;-0.974;2023-07-29T12:21:47;99224.91;;;22.33;66.07
51439;BME280;38816;51.142;-0.974;2023-07-29T12:24:13;99231.84;;;22.53;65.72
51439;BME280;38816;51.142;-0.974;2023-07-29T12:26:42;99222.53;;;22.28;63.80
51439;BME280;38816;51.142;-0.974;2023-07-29T12:29:25;99224.03;;;22.15;61.26
51439;BME280;38816;51.142;-0.974;2023-07-29T12:32:02;99218.03;;;21.75;64.10
51439;BME280;38816;51.142;-0.974;2023-07-29T12:34:29;99210.22;;;21.55;64.96
51439;BME280;38816;51.142;-0.974;2023-07-29T12:36:57;99213.59;;;21.57;70.54
51439;BME280;38816;51.142;-0.974;2023-07-29T12:39:25;99217.53;;;21.67;65.53
51439;BME280;38816;51.142;-0.974;2023-07-29T12:41:52;99217.88;;;21.78;57.93
51439;BME280;38816;51.142;-0.974;2023-07-29T12:44:18;99220.13;;;21.67;59.51
51439;BME280;38816;51.142;-0.974;2023-07-29T12:46:44;99217.56;;;21.46;58.88
51439;BME280;38816;51.142;-0.974;2023-07-29T12:49:10;99219.19;;;21.49;59.45